sensor_id;sensor_type;location;lat;lon;timestamp;P1;durP1;ratioP1;P2;durP2;ratioP2
5795;SDS011;2924;51.458;7.046;2023-03-01T00:01:47;11.10;;;6.77;;
5795;SDS011;2924;51.458;7.046;2023-03-01T00:04:13;16.70;;;8.63;;
5795;SDS011;2924;51.458;7.046;2023-03-01T00:06:39;10.73;;;8.00;;
5795;SDS011;2924;51.458;7.046;2023-03-01T00:09:06;10.70;;;7.73;;
5795;SDS011;2924;51.458;7.046;2023-03-01T00:11:32;9.47;;;7.60;;
5795;SDS011;2924;51.458;7.046;2023-03-01T00:13:59;12.10;;;7.30;;
5795;SDS011;2924;51.458;7.046;2023-03-01T00:16:27;9.67;;;6.10;;
5795;SDS011;2924;51.458;7.046;2023-03-01T00:18:55;14.43;;;6.13;;
5795;SDS011;2924;51.458;7.046;2023-03-01T00:21:22;9.80;;;6.10;;
5795;SDS011;2924;51.458;7.046;2023-03-01T00:23:48;11.57;;;6.60;;
5795;SDS011;2924;51.458;7.046;2023-03-01T00:26:15;14.60;;;6.47;;
5795;SDS011;2924;51.458;7.046;2023-03-01T00:28:42;12.63;;;7.50;;
5795;SDS011;2924;51.458;7.046;2023-03-01T00:31:09;8.80;;;6.20;;
5795;SDS011;2924;51.458;7.046;2023-03-01T00:33:37;10.00;;;7.23;;
5795;SDS011;2924;51.458;7.046;2023-03-01T00:36:03;11.50;;;6.07;;
5795;SDS011;2924;51.458;7.046;2023-03-01T00:38:29;7.50;;;5.80;;
5795;SDS011;2924;51.458;7.046;2023-03-01T00:40:54;9.17;;;6.40;;
5795;SDS011;2924;51.458;7.046;2023-03-01T00:43:20;10.80;;;6.77;;
5795;SDS011;2924;51.458;7.046;2023-03-01T00:45:46;7.13;;;5.50;;
5795;SDS011;2924;51.458;7.046;2023-03-01T00:48:11;7.83;;;6.23;;
5795;SDS011;2924;51.458;7.046;2023-03-01T00:50:37;8.43;;;6.27;;
5795;SDS011;2924;51.458;7.046;2023-03-01T00:53:03;7.67;;;6.47;;
5795;SDS011;2924;51.458;7.046;2023-03-01T00:55:30;13.27;;;7.13;;
5795;SDS011;2924;51.458;7.046;2023-03-01T00:57:55;9.40;;;6.57;;
5795;SDS011;2924;51.458;7.046;2023-03-01T01:00:21;9.33;;;6.63;;
5795;SDS011;2924;51.458;7.046;2023-03-01T01:02:47;7.90;;;5.83;;
5795;SDS011;2924;51.458;7.046;2023-03-01T01:05:13;10.17;;;6.13;;
5795;SDS011;2924;51.458;7.046;2023-03-01T01:07:39;7.83;;;6.67;;
5795;SDS011;2924;51.458;7.046;2023-03-01T01:10:05;8.73;;;6.90;;
5795;SDS011;2924;51.458;7.046;2023-03-01T01:12:31;8.60;;;6.43;;
5795;SDS011;2924;51.458;7.046;2023-03-01T01:14:57;8.20;;;6.40;;
5795;SDS011;2924;51.458;7.046;2023-03-01T01:17:23;8.00;;;5.80;;
5795;SDS011;2924;51.458;7.046;2023-03-01T01:19:49;13.90;;;7.60;;
5795;SDS011;2924;51.458;7.046;2023-03-01T01:22:14;9.87;;;7.00;;
5795;SDS011;2924;51.458;7.046;2023-03-01T01:24:40;7.53;;;6.27;;
5795;SDS011;2924;51.458;7.046;2023-03-01T01:27:06;7.80;;;6.53;;
5795;SDS011;2924;51.458;7.046;2023-03-01T01:29:32;10.60;;;6.33;;
5795;SDS011;2924;51.458;7.046;2023-03-01T01:31:58;9.60;;;7.33;;
5795;SDS011;2924;51.458;7.046;2023-03-01T01:34:24;8.23;;;7.03;;
5795;SDS011;2924;51.458;7.046;2023-03-01T01:36:50;16.73;;;7.73;;
5795;SDS011;2924;51.458;7.046;2023-03-01T01:39:21;8.43;;;6.70;;
5795;SDS011;2924;51.458;7.046;2023-03-01T01:41:47;7.93;;;7.13;;
5795;SDS011;2924;51.458;7.046;2023-03-01T01:49:51;9.73;;;6.57;;
5795;SDS011;2924;51.458;7.046;2023-03-01T01:52:22;7.50;;;5.97;;
5795;SDS011;2924;51.458;7.046;2023-03-01T01:55:03;18.43;;;7.40;;
5795;SDS011;2924;51.458;7.046;2023-03-01T01:58:13;10.97;;;7.30;;
5795;SDS011;2924;51.458;7.046;2023-03-01T02:00:22;11.10;;;8.27;;
5795;SDS011;2924;51.458;7.046;2023-03-01T02:02:53;8.83;;;6.60;;
5795;SDS011;2924;51.458;7.046;2023-03-01T02:08:05;11.73;;;8.33;;
5795;SDS011;2924;51.458;7.046;2023-03-01T02:10:33;13.53;;;7.97;;
5795;SDS011;2924;51.458;7.046;2023-03-01T02:13:00;9.10;;;7.40;;
5795;SDS011;2924;51.458;7.046;2023-03-01T02:15:27;9.80;;;7.27;;
5795;SDS011;2924;51.458;7.046;2023-03-01T02:17:58;12.13;;;7.80;;
5795;SDS011;2924;51.458;7.046;2023-03-01T02:22:59;10.83;;;7.37;;
5795;SDS011;2924;51.458;7.046;2023-03-01T02:28:08;11.77;;;7.70;;
5795;SDS011;2924;51.458;7.046;2023-03-01T02:30:40;14.83;;;8.47;;
5795;SDS011;2924;51.458;7.046;2023-03-01T02:33:27;12.33;;;6.63;;
5795;SDS011;2924;51.458;7.046;2023-03-01T02:35:57;16.90;;;8.53;;
5795;SDS011;2924;51.458;7.046;2023-03-01T02:38:29;11.13;;;8.40;;
5795;SDS011;2924;51.458;7.046;2023-03-01T02:40:56;12.23;;;7.80;;
5795;SDS011;2924;51.458;7.046;2023-03-01T02:43:24;14.50;;;8.33;;
5795;SDS011;2924;51.458;7.046;2023-03-01T02:45:57;11.97;;;7.60;;
5795;SDS011;2924;51.458;7.046;2023-03-01T02:48:38;14.40;;;9.37;;
5795;SDS011;2924;51.458;7.046;2023-03-01T02:51:11;10.23;;;6.97;;
5795;SDS011;2924;51.458;7.046;2023-03-01T02:54:08;10.87;;;7.20;;
5795;SDS011;2924;51.458;7.046;2023-03-01T02:56:38;12.30;;;8.30;;
5795;SDS011;2924;51.458;7.046;2023-03-01T02:59:04;12.57;;;9.10;;
5795;SDS011;2924;51.458;7.046;2023-03-01T03:01:30;9.87;;;7.27;;
5795;SDS011;2924;51.458;7.046;2023-03-01T03:04:06;12.20;;;7.93;;
5795;SDS011;2924;51.458;7.046;2023-03-01T03:06:33;13.43;;;9.30;;
5795;SDS011;2924;51.458;7.046;2023-03-01T03:08:59;10.47;;;7.87;;
5795;SDS011;2924;51.458;7.046;2023-03-01T03:11:25;10.93;;;7.97;;
5795;SDS011;2924;51.458;7.046;2023-03-01T03:13:51;23.87;;;9.93;;
5795;SDS011;2924;51.458;7.046;2023-03-01T03:16:17;14.60;;;9.30;;
5795;SDS011;2924;51.458;7.046;2023-03-01T03:18:43;16.57;;;9.57;;
5795;SDS011;2924;51.458;7.046;2023-03-01T03:21:10;9.03;;;7.47;;
5795;SDS011;2924;51.458;7.046;2023-03-01T03:23:37;12.60;;;8.50;;
5795;SDS011;2924;51.458;7.046;2023-03-01T03:26:03;9.77;;;7.60;;
5795;SDS011;2924;51.458;7.046;2023-03-01T03:28:30;15.27;;;8.87;;
5795;SDS011;2924;51.458;7.046;2023-03-01T03:30:57;19.97;;;8.03;;
5795;SDS011;2924;51.458;7.046;2023-03-01T03:33:23;9.33;;;7.20;;
5795;SDS011;2924;51.458;7.046;2023-03-01T03:35:49;13.97;;;8.70;;
5795;SDS011;2924;51.458;7.046;2023-03-01T03:38:16;14.30;;;8.60;;
5795;SDS011;2924;51.458;7.046;2023-03-01T03:40:49;12.07;;;7.80;;
5795;SDS011;2924;51.458;7.046;2023-03-01T03:43:27;11.83;;;7.77;;
5795;SDS011;2924;51.458;7.046;2023-03-01T03:45:54;11.50;;;7.53;;
5795;SDS011;2924;51.458;7.046;2023-03-01T03:48:22;14.20;;;8.87;;
5795;SDS011;2924;51.458;7.046;2023-03-01T03:50:54;9.57;;;7.60;;
5795;SDS011;2924;51.458;7.046;2023-03-01T03:53:21;10.20;;;7.47;;
5795;SDS011;2924;51.458;7.046;2023-03-01T03:55:49;14.63;;;8.60;;
5795;SDS011;2924;51.458;7.046;2023-03-01T03:58:16;10.40;;;7.53;;
5795;SDS011;2924;51.458;7.046;2023-03-01T04:00:44;13.17;;;7.90;;
5795;SDS011;2924;51.458;7.046;2023-03-01T04:03:11;15.20;;;8.40;;
5795;SDS011;2924;51.458;7.046;2023-03-01T04:05:39;11.40;;;7.93;;
5795;SDS011;2924;51.458;7.046;2023-03-01T04:08:06;13.10;;;8.93;;
5795;SDS011;2924;51.458;7.046;2023-03-01T04:10:42;11.67;;;7.30;;
5795;SDS011;2924;51.458;7.046;2023-03-01T04:13:14;11.97;;;7.87;;
5795;SDS011;2924;51.458;7.046;2023-03-01T04:15:45;10.80;;;7.67;;
5795;SDS011;2924;51.458;7.046;2023-03-01T04:18:13;12.90;;;7.93;;
5795;SDS011;2924;51.458;7.046;2023-03-01T04:20:41;14.40;;;8.03;;
5795;SDS011;2924;51.458;7.046;2023-03-01T04:23:09;13.47;;;8.17;;
5795;SDS011;2924;51.458;7.046;2023-03-01T04:25:41;10.00;;;7.90;;
5795;SDS011;2924;51.458;7.046;2023-03-01T04:28:10;12.60;;;7.63;;
5795;SDS011;2924;51.458;7.046;2023-03-01T04:30:36;11.80;;;7.57;;
5795;SDS011;2924;51.458;7.046;2023-03-01T04:33:06;13.80;;;7.93;;
5795;SDS011;2924;51.458;7.046;2023-03-01T04:35:33;9.53;;;7.07;;
5795;SDS011;2924;51.458;7.046;2023-03-01T04:38:01;14.70;;;8.50;;
5795;SDS011;2924;51.458;7.046;2023-03-01T04:40:27;13.10;;;8.77;;
5795;SDS011;2924;51.458;7.046;2023-03-01T04:42:53;13.40;;;8.60;;
5795;SDS011;2924;51.458;7.046;2023-03-01T04:45:19;15.97;;;9.30;;
5795;SDS011;2924;51.458;7.046;2023-03-01T04:47:45;17.93;;;9.07;;
5795;SDS011;2924;51.458;7.046;2023-03-01T04:50:13;13.73;;;8.90;;
5795;SDS011;2924;51.458;7.046;2023-03-01T04:52:41;16.90;;;9.70;;
5795;SDS011;2924;51.458;7.046;2023-03-01T04:55:07;11.43;;;7.70;;
5795;SDS011;2924;51.458;7.046;2023-03-01T04:57:34;13.80;;;8.60;;
5795;SDS011;2924;51.458;7.046;2023-03-01T05:00:00;16.17;;;10.03;;
5795;SDS011;2924;51.458;7.046;2023-03-01T05:02:26;17.80;;;9.70;;
5795;SDS011;2924;51.458;7.046;2023-03-01T05:04:51;13.30;;;9.67;;
5795;SDS011;2924;51.458;7.046;2023-03-01T05:07:17;11.70;;;8.27;;
5795;SDS011;2924;51.458;7.046;2023-03-01T05:09:47;14.43;;;9.03;;
5795;SDS011;2924;51.458;7.046;2023-03-01T05:12:13;14.30;;;8.57;;
5795;SDS011;2924;51.458;7.046;2023-03-01T05:14:40;13.20;;;9.47;;
5795;SDS011;2924;51.458;7.046;2023-03-01T05:17:06;13.47;;;8.73;;
5795;SDS011;2924;51.458;7.046;2023-03-01T05:19:32;17.47;;;9.50;;
5795;SDS011;2924;51.458;7.046;2023-03-01T05:21:58;11.30;;;8.67;;
5795;SDS011;2924;51.458;7.046;2023-03-01T05:24:29;18.60;;;10.20;;
5795;SDS011;2924;51.458;7.046;2023-03-01T05:26:56;18.07;;;10.37;;
5795;SDS011;2924;51.458;7.046;2023-03-01T05:29:23;10.27;;;8.17;;
5795;SDS011;2924;51.458;7.046;2023-03-01T05:31:53;15.10;;;9.00;;
5795;SDS011;2924;51.458;7.046;2023-03-01T05:34:23;13.27;;;9.30;;
5795;SDS011;2924;51.458;7.046;2023-03-01T05:36:50;10.53;;;8.20;;
5795;SDS011;2924;51.458;7.046;2023-03-01T05:39:18;12.63;;;9.30;;
5795;SDS011;2924;51.458;7.046;2023-03-01T05:41:48;12.43;;;8.67;;
5795;SDS011;2924;51.458;7.046;2023-03-01T05:44:17;12.67;;;8.90;;
5795;SDS011;2924;51.458;7.046;2023-03-01T05:46:43;17.27;;;10.03;;
5795;SDS011;2924;51.458;7.046;2023-03-01T05:49:09;15.27;;;8.87;;
5795;SDS011;2924;51.458;7.046;2023-03-01T05:51:36;12.53;;;8.60;;
5795;SDS011;2924;51.458;7.046;2023-03-01T05:54:01;10.50;;;8.80;;
5795;SDS011;2924;51.458;7.046;2023-03-01T05:56:27;15.20;;;10.30;;
5795;SDS011;2924;51.458;7.046;2023-03-01T05:58:54;15.50;;;10.97;;
5795;SDS011;2924;51.458;7.046;2023-03-01T06:01:19;11.53;;;8.50;;
5795;SDS011;2924;51.458;7.046;2023-03-01T06:03:45;12.57;;;9.57;;
5795;SDS011;2924;51.458;7.046;2023-03-01T06:06:10;16.60;;;9.70;;
5795;SDS011;2924;51.458;7.046;2023-03-01T06:08:36;12.10;;;8.13;;
5795;SDS011;2924;51.458;7.046;2023-03-01T06:11:02;14.93;;;9.67;;
5795;SDS011;2924;51.458;7.046;2023-03-01T06:13:27;14.87;;;9.10;;
5795;SDS011;2924;51.458;7.046;2023-03-01T06:15:53;15.50;;;10.40;;
5795;SDS011;2924;51.458;7.046;2023-03-01T06:18:19;12.23;;;9.03;;
5795;SDS011;2924;51.458;7.046;2023-03-01T06:20:44;12.87;;;9.67;;
5795;SDS011;2924;51.458;7.046;2023-03-01T06:23:17;16.20;;;9.80;;
5795;SDS011;2924;51.458;7.046;2023-03-01T06:25:42;17.70;;;10.10;;
5795;SDS011;2924;51.458;7.046;2023-03-01T06:28:08;13.23;;;9.03;;
5795;SDS011;2924;51.458;7.046;2023-03-01T06:30:33;17.23;;;10.00;;
5795;SDS011;2924;51.458;7.046;2023-03-01T06:33:00;14.90;;;10.07;;
5795;SDS011;2924;51.458;7.046;2023-03-01T06:35:26;23.63;;;11.10;;
5795;SDS011;2924;51.458;7.046;2023-03-01T06:37:54;15.53;;;10.13;;
5795;SDS011;2924;51.458;7.046;2023-03-01T06:40:20;19.73;;;10.93;;
5795;SDS011;2924;51.458;7.046;2023-03-01T06:42:49;30.00;;;12.07;;
5795;SDS011;2924;51.458;7.046;2023-03-01T06:45:16;13.67;;;10.03;;
5795;SDS011;2924;51.458;7.046;2023-03-01T06:47:43;17.63;;;10.20;;
5795;SDS011;2924;51.458;7.046;2023-03-01T06:50:10;15.47;;;10.37;;
5795;SDS011;2924;51.458;7.046;2023-03-01T06:52:36;13.70;;;9.40;;
5795;SDS011;2924;51.458;7.046;2023-03-01T06:55:02;14.53;;;9.30;;
5795;SDS011;2924;51.458;7.046;2023-03-01T06:57:28;12.47;;;8.67;;
5795;SDS011;2924;51.458;7.046;2023-03-01T06:59:54;16.00;;;9.70;;
5795;SDS011;2924;51.458;7.046;2023-03-01T07:02:20;15.77;;;8.30;;
5795;SDS011;2924;51.458;7.046;2023-03-01T07:04:46;11.23;;;7.33;;
5795;SDS011;2924;51.458;7.046;2023-03-01T07:07:11;11.13;;;7.90;;
5795;SDS011;2924;51.458;7.046;2023-03-01T07:09:37;10.20;;;7.77;;
5795;SDS011;2924;51.458;7.046;2023-03-01T07:12:02;11.80;;;6.80;;
5795;SDS011;2924;51.458;7.046;2023-03-01T07:14:28;9.83;;;6.50;;
5795;SDS011;2924;51.458;7.046;2023-03-01T07:16:54;12.23;;;7.33;;
5795;SDS011;2924;51.458;7.046;2023-03-01T07:19:20;9.73;;;7.03;;
5795;SDS011;2924;51.458;7.046;2023-03-01T07:21:46;7.87;;;5.97;;
5795;SDS011;2924;51.458;7.046;2023-03-01T07:24:12;8.80;;;5.83;;
5795;SDS011;2924;51.458;7.046;2023-03-01T07:26:38;14.23;;;7.50;;
5795;SDS011;2924;51.458;7.046;2023-03-01T07:29:05;15.80;;;7.63;;
5795;SDS011;2924;51.458;7.046;2023-03-01T07:31:31;11.73;;;7.67;;
5795;SDS011;2924;51.458;7.046;2023-03-01T07:33:57;9.87;;;6.97;;
5795;SDS011;2924;51.458;7.046;2023-03-01T07:36:23;9.93;;;6.43;;
5795;SDS011;2924;51.458;7.046;2023-03-01T07:38:49;11.17;;;7.20;;
5795;SDS011;2924;51.458;7.046;2023-03-01T07:41:15;23.10;;;7.23;;
5795;SDS011;2924;51.458;7.046;2023-03-01T07:43:41;10.80;;;6.60;;
5795;SDS011;2924;51.458;7.046;2023-03-01T07:46:07;11.60;;;6.70;;
5795;SDS011;2924;51.458;7.046;2023-03-01T07:48:32;7.73;;;6.23;;
5795;SDS011;2924;51.458;7.046;2023-03-01T07:50:59;15.47;;;8.20;;
5795;SDS011;2924;51.458;7.046;2023-03-01T07:53:26;10.87;;;6.90;;
5795;SDS011;2924;51.458;7.046;2023-03-01T07:56:07;10.57;;;6.93;;
5795;SDS011;2924;51.458;7.046;2023-03-01T07:58:38;10.53;;;7.07;;
5795;SDS011;2924;51.458;7.046;2023-03-01T08:01:07;25.53;;;7.67;;
5795;SDS011;2924;51.458;7.046;2023-03-01T08:03:34;13.17;;;6.80;;
5795;SDS011;2924;51.458;7.046;2023-03-01T08:06:01;14.50;;;7.80;;
5795;SDS011;2924;51.458;7.046;2023-03-01T08:08:27;10.77;;;6.60;;
5795;SDS011;2924;51.458;7.046;2023-03-01T08:10:56;20.33;;;7.60;;
5795;SDS011;2924;51.458;7.046;2023-03-01T08:13:22;13.07;;;6.40;;
5795;SDS011;2924;51.458;7.046;2023-03-01T08:15:48;12.33;;;7.00;;
5795;SDS011;2924;51.458;7.046;2023-03-01T08:18:15;9.53;;;5.70;;
5795;SDS011;2924;51.458;7.046;2023-03-01T08:20:41;17.50;;;6.73;;
5795;SDS011;2924;51.458;7.046;2023-03-01T08:23:07;10.47;;;6.27;;
5795;SDS011;2924;51.458;7.046;2023-03-01T08:25:33;12.53;;;6.53;;
5795;SDS011;2924;51.458;7.046;2023-03-01T08:27:59;15.03;;;7.53;;
5795;SDS011;2924;51.458;7.046;2023-03-01T08:30:25;10.93;;;6.40;;
5795;SDS011;2924;51.458;7.046;2023-03-01T08:32:50;11.40;;;6.50;;
5795;SDS011;2924;51.458;7.046;2023-03-01T08:35:16;14.40;;;7.10;;
5795;SDS011;2924;51.458;7.046;2023-03-01T08:37:43;14.80;;;6.87;;
5795;SDS011;2924;51.458;7.046;2023-03-01T08:40:09;9.00;;;6.20;;
5795;SDS011;2924;51.458;7.046;2023-03-01T08:42:36;8.20;;;6.03;;
5795;SDS011;2924;51.458;7.046;2023-03-01T08:45:02;9.37;;;6.50;;
5795;SDS011;2924;51.458;7.046;2023-03-01T08:47:28;7.57;;;5.87;;
5795;SDS011;2924;51.458;7.046;2023-03-01T08:49:54;10.17;;;6.10;;
5795;SDS011;2924;51.458;7.046;2023-03-01T08:52:20;10.70;;;6.27;;
5795;SDS011;2924;51.458;7.046;2023-03-01T08:54:49;9.40;;;5.60;;
5795;SDS011;2924;51.458;7.046;2023-03-01T08:57:14;8.93;;;5.77;;
5795;SDS011;2924;51.458;7.046;2023-03-01T08:59:40;8.20;;;5.30;;
5795;SDS011;2924;51.458;7.046;2023-03-01T09:02:10;13.13;;;5.97;;
5795;SDS011;2924;51.458;7.046;2023-03-01T09:04:38;14.03;;;5.70;;
5795;SDS011;2924;51.458;7.046;2023-03-01T09:07:04;8.00;;;6.27;;
5795;SDS011;2924;51.458;7.046;2023-03-01T09:09:30;10.60;;;6.40;;
5795;SDS011;2924;51.458;7.046;2023-03-01T09:11:55;6.70;;;5.37;;
5795;SDS011;2924;51.458;7.046;2023-03-01T09:14:22;8.70;;;5.53;;
5795;SDS011;2924;51.458;7.046;2023-03-01T09:16:47;9.03;;;5.40;;
5795;SDS011;2924;51.458;7.046;2023-03-01T09:19:13;8.17;;;5.10;;
5795;SDS011;2924;51.458;7.046;2023-03-01T09:21:39;6.23;;;4.50;;
5795;SDS011;2924;51.458;7.046;2023-03-01T09:24:05;21.63;;;5.63;;
5795;SDS011;2924;51.458;7.046;2023-03-01T09:26:31;8.97;;;5.07;;
5795;SDS011;2924;51.458;7.046;2023-03-01T09:28:57;9.20;;;5.70;;
5795;SDS011;2924;51.458;7.046;2023-03-01T09:31:23;7.43;;;5.57;;
5795;SDS011;2924;51.458;7.046;2023-03-01T09:33:50;8.63;;;5.27;;
5795;SDS011;2924;51.458;7.046;2023-03-01T09:36:19;6.00;;;5.37;;
5795;SDS011;2924;51.458;7.046;2023-03-01T09:38:47;7.47;;;5.13;;
5795;SDS011;2924;51.458;7.046;2023-03-01T09:46:58;9.10;;;4.83;;
5795;SDS011;2924;51.458;7.046;2023-03-01T09:49:28;7.83;;;5.47;;
5795;SDS011;2924;51.458;7.046;2023-03-01T09:54:58;5.40;;;4.67;;
5795;SDS011;2924;51.458;7.046;2023-03-01T10:00:28;7.33;;;4.63;;
5795;SDS011;2924;51.458;7.046;2023-03-01T10:10:48;8.70;;;5.57;;
5795;SDS011;2924;51.458;7.046;2023-03-01T10:15:45;4.73;;;4.17;;
5795;SDS011;2924;51.458;7.046;2023-03-01T10:18:21;9.87;;;5.00;;
5795;SDS011;2924;51.458;7.046;2023-03-01T10:37:15;4.87;;;4.10;;
5795;SDS011;2924;51.458;7.046;2023-03-01T10:40:03;7.50;;;3.87;;
5795;SDS011;2924;51.458;7.046;2023-03-01T10:42:34;19.33;;;4.80;;
5795;SDS011;2924;51.458;7.046;2023-03-01T10:45:53;6.97;;;4.07;;
5795;SDS011;2924;51.458;7.046;2023-03-01T10:59:32;6.33;;;3.70;;
5795;SDS011;2924;51.458;7.046;2023-03-01T11:05:20;5.40;;;4.27;;
5795;SDS011;2924;51.458;7.046;2023-03-01T11:07:51;6.90;;;3.80;;
5795;SDS011;2924;51.458;7.046;2023-03-01T11:20:56;8.33;;;4.70;;
5795;SDS011;2924;51.458;7.046;2023-03-01T11:23:24;11.17;;;4.97;;
5795;SDS011;2924;51.458;7.046;2023-03-01T11:25:56;5.80;;;3.70;;
5795;SDS011;2924;51.458;7.046;2023-03-01T11:28:25;8.93;;;4.97;;
5795;SDS011;2924;51.458;7.046;2023-03-01T11:30:58;5.70;;;4.13;;
5795;SDS011;2924;51.458;7.046;2023-03-01T11:36:23;6.73;;;4.60;;
5795;SDS011;2924;51.458;7.046;2023-03-01T11:41:42;8.50;;;4.50;;
5795;SDS011;2924;51.458;7.046;2023-03-01T11:44:20;4.00;;;3.70;;
5795;SDS011;2924;51.458;7.046;2023-03-01T11:47:06;7.30;;;4.97;;
5795;SDS011;2924;51.458;7.046;2023-03-01T11:50:06;4.40;;;4.00;;
5795;SDS011;2924;51.458;7.046;2023-03-01T12:04:06;6.60;;;4.33;;
5795;SDS011;2924;51.458;7.046;2023-03-01T12:06:56;5.83;;;4.33;;
5795;SDS011;2924;51.458;7.046;2023-03-01T12:12:31;10.50;;;4.37;;
5795;SDS011;2924;51.458;7.046;2023-03-01T12:20:18;5.00;;;4.10;;
5795;SDS011;2924;51.458;7.046;2023-03-01T12:28:15;13.13;;;4.30;;
5795;SDS011;2924;51.458;7.046;2023-03-01T12:31:32;7.43;;;4.37;;
5795;SDS011;2924;51.458;7.046;2023-03-01T12:34:07;5.30;;;4.70;;
5795;SDS011;2924;51.458;7.046;2023-03-01T12:39:37;7.37;;;3.90;;
5795;SDS011;2924;51.458;7.046;2023-03-01T12:50:14;5.97;;;4.30;;
5795;SDS011;2924;51.458;7.046;2023-03-01T12:52:46;10.30;;;5.13;;
5795;SDS011;2924;51.458;7.046;2023-03-01T12:55:37;4.57;;;3.67;;
5795;SDS011;2924;51.458;7.046;2023-03-01T12:58:24;4.57;;;3.60;;
5795;SDS011;2924;51.458;7.046;2023-03-01T13:06:39;4.80;;;4.40;;
5795;SDS011;2924;51.458;7.046;2023-03-01T13:09:22;5.93;;;4.70;;
5795;SDS011;2924;51.458;7.046;2023-03-01T13:17:54;4.90;;;3.80;;
5795;SDS011;2924;51.458;7.046;2023-03-01T13:23:03;5.00;;;4.30;;
5795;SDS011;2924;51.458;7.046;2023-03-01T13:25:32;5.50;;;4.80;;
5795;SDS011;2924;51.458;7.046;2023-03-01T13:31:01;4.83;;;3.90;;
5795;SDS011;2924;51.458;7.046;2023-03-01T13:35:55;6.10;;;4.53;;
5795;SDS011;2924;51.458;7.046;2023-03-01T13:44:29;7.13;;;5.20;;
5795;SDS011;2924;51.458;7.046;2023-03-01T13:47:13;5.50;;;4.37;;
5795;SDS011;2924;51.458;7.046;2023-03-01T13:49:43;5.80;;;4.77;;
5795;SDS011;2924;51.458;7.046;2023-03-01T13:55:03;11.10;;;4.90;;
5795;SDS011;2924;51.458;7.046;2023-03-01T13:57:39;6.73;;;4.50;;
5795;SDS011;2924;51.458;7.046;2023-03-01T14:00:07;12.23;;;4.53;;
5795;SDS011;2924;51.458;7.046;2023-03-01T14:05:31;6.67;;;4.20;;
5795;SDS011;2924;51.458;7.046;2023-03-01T14:07:57;10.53;;;4.43;;
5795;SDS011;2924;51.458;7.046;2023-03-01T14:10:24;7.17;;;4.83;;
5795;SDS011;2924;51.458;7.046;2023-03-01T14:18:45;6.00;;;4.80;;
5795;SDS011;2924;51.458;7.046;2023-03-01T14:21:22;7.60;;;5.27;;
5795;SDS011;2924;51.458;7.046;2023-03-01T14:23:50;8.50;;;5.77;;
5795;SDS011;2924;51.458;7.046;2023-03-01T14:26:19;9.67;;;5.70;;
5795;SDS011;2924;51.458;7.046;2023-03-01T14:28:46;8.70;;;5.50;;
5795;SDS011;2924;51.458;7.046;2023-03-01T14:34:02;6.90;;;5.23;;
5795;SDS011;2924;51.458;7.046;2023-03-01T14:36:32;6.77;;;4.47;;
5795;SDS011;2924;51.458;7.046;2023-03-01T14:38:59;12.53;;;5.20;;
5795;SDS011;2924;51.458;7.046;2023-03-01T14:41:31;5.67;;;4.53;;
5795;SDS011;2924;51.458;7.046;2023-03-01T14:44:01;7.63;;;5.30;;
5795;SDS011;2924;51.458;7.046;2023-03-01T14:49:13;6.17;;;5.00;;
5795;SDS011;2924;51.458;7.046;2023-03-01T14:51:41;4.97;;;4.37;;
5795;SDS011;2924;51.458;7.046;2023-03-01T14:54:18;8.20;;;5.23;;
5795;SDS011;2924;51.458;7.046;2023-03-01T14:56:50;9.53;;;6.10;;
5795;SDS011;2924;51.458;7.046;2023-03-01T14:59:21;8.90;;;4.87;;
5795;SDS011;2924;51.458;7.046;2023-03-01T15:01:48;8.70;;;5.00;;
5795;SDS011;2924;51.458;7.046;2023-03-01T15:04:20;6.03;;;4.30;;
5795;SDS011;2924;51.458;7.046;2023-03-01T15:06:52;12.60;;;5.23;;
5795;SDS011;2924;51.458;7.046;2023-03-01T15:09:20;8.23;;;4.90;;
5795;SDS011;2924;51.458;7.046;2023-03-01T15:11:47;8.97;;;4.87;;
5795;SDS011;2924;51.458;7.046;2023-03-01T15:14:29;6.83;;;4.80;;
5795;SDS011;2924;51.458;7.046;2023-03-01T15:17:15;8.10;;;4.63;;
5795;SDS011;2924;51.458;7.046;2023-03-01T15:20:18;7.47;;;5.27;;
5795;SDS011;2924;51.458;7.046;2023-03-01T15:22:47;9.57;;;5.30;;
5795;SDS011;2924;51.458;7.046;2023-03-01T15:25:21;6.57;;;5.50;;
5795;SDS011;2924;51.458;7.046;2023-03-01T15:27:50;6.07;;;4.17;;
5795;SDS011;2924;51.458;7.046;2023-03-01T15:30:18;7.30;;;4.23;;
5795;SDS011;2924;51.458;7.046;2023-03-01T15:32:46;9.30;;;5.33;;
5795;SDS011;2924;51.458;7.046;2023-03-01T15:40:54;16.57;;;4.80;;
5795;SDS011;2924;51.458;7.046;2023-03-01T15:43:37;27.33;;;5.13;;
5795;SDS011;2924;51.458;7.046;2023-03-01T15:46:04;4.90;;;4.30;;
5795;SDS011;2924;51.458;7.046;2023-03-01T15:48:30;6.53;;;5.03;;
5795;SDS011;2924;51.458;7.046;2023-03-01T15:50:57;7.70;;;5.03;;
5795;SDS011;2924;51.458;7.046;2023-03-01T15:53:24;12.93;;;4.40;;
5795;SDS011;2924;51.458;7.046;2023-03-01T15:55:51;9.70;;;5.80;;
5795;SDS011;2924;51.458;7.046;2023-03-01T15:58:21;11.00;;;4.60;;
5795;SDS011;2924;51.458;7.046;2023-03-01T16:00:49;9.33;;;4.87;;
5795;SDS011;2924;51.458;7.046;2023-03-01T16:03:20;6.60;;;4.57;;
5795;SDS011;2924;51.458;7.046;2023-03-01T16:05:48;8.47;;;5.23;;
5795;SDS011;2924;51.458;7.046;2023-03-01T16:08:14;11.63;;;5.40;;
5795;SDS011;2924;51.458;7.046;2023-03-01T16:10:41;12.17;;;4.90;;
5795;SDS011;2924;51.458;7.046;2023-03-01T16:13:13;7.67;;;5.10;;
5795;SDS011;2924;51.458;7.046;2023-03-01T16:15:39;7.20;;;5.00;;
5795;SDS011;2924;51.458;7.046;2023-03-01T16:18:05;6.23;;;4.70;;
5795;SDS011;2924;51.458;7.046;2023-03-01T16:20:31;6.10;;;4.17;;
5795;SDS011;2924;51.458;7.046;2023-03-01T16:22:58;7.50;;;4.87;;
5795;SDS011;2924;51.458;7.046;2023-03-01T16:25:25;6.13;;;4.60;;
5795;SDS011;2924;51.458;7.046;2023-03-01T16:27:51;7.00;;;4.70;;
5795;SDS011;2924;51.458;7.046;2023-03-01T16:30:18;9.53;;;5.33;;
5795;SDS011;2924;51.458;7.046;2023-03-01T16:32:46;8.83;;;4.90;;
5795;SDS011;2924;51.458;7.046;2023-03-01T16:35:13;11.80;;;4.10;;
5795;SDS011;2924;51.458;7.046;2023-03-01T16:37:41;5.93;;;4.20;;
5795;SDS011;2924;51.458;7.046;2023-03-01T16:40:15;5.37;;;3.97;;
5795;SDS011;2924;51.458;7.046;2023-03-01T16:42:43;6.77;;;4.00;;
5795;SDS011;2924;51.458;7.046;2023-03-01T16:45:09;4.70;;;3.50;;
5795;SDS011;2924;51.458;7.046;2023-03-01T16:47:35;4.83;;;3.40;;
5795;SDS011;2924;51.458;7.046;2023-03-01T16:50:01;5.50;;;4.00;;
5795;SDS011;2924;51.458;7.046;2023-03-01T16:52:27;6.20;;;3.80;;
5795;SDS011;2924;51.458;7.046;2023-03-01T16:54:52;5.43;;;3.50;;
5795;SDS011;2924;51.458;7.046;2023-03-01T16:57:18;6.67;;;3.27;;
5795;SDS011;2924;51.458;7.046;2023-03-01T16:59:44;4.57;;;3.50;;
5795;SDS011;2924;51.458;7.046;2023-03-01T17:02:10;4.20;;;3.60;;
5795;SDS011;2924;51.458;7.046;2023-03-01T17:04:41;5.50;;;3.90;;
5795;SDS011;2924;51.458;7.046;2023-03-01T17:07:07;4.00;;;3.60;;
5795;SDS011;2924;51.458;7.046;2023-03-01T17:09:36;6.90;;;4.67;;
5795;SDS011;2924;51.458;7.046;2023-03-01T17:12:02;4.60;;;3.40;;
5795;SDS011;2924;51.458;7.046;2023-03-01T17:14:29;4.70;;;3.90;;
5795;SDS011;2924;51.458;7.046;2023-03-01T17:16:54;7.83;;;4.73;;
5795;SDS011;2924;51.458;7.046;2023-03-01T17:19:20;7.53;;;4.57;;
5795;SDS011;2924;51.458;7.046;2023-03-01T17:21:46;10.93;;;5.00;;
5795;SDS011;2924;51.458;7.046;2023-03-01T17:24:12;11.33;;;5.03;;
5795;SDS011;2924;51.458;7.046;2023-03-01T17:26:38;7.70;;;5.20;;
5795;SDS011;2924;51.458;7.046;2023-03-01T17:29:04;10.40;;;5.50;;
5795;SDS011;2924;51.458;7.046;2023-03-01T17:31:30;10.57;;;4.97;;
5795;SDS011;2924;51.458;7.046;2023-03-01T17:33:57;10.00;;;4.80;;
5795;SDS011;2924;51.458;7.046;2023-03-01T17:36:23;12.07;;;4.10;;
5795;SDS011;2924;51.458;7.046;2023-03-01T17:38:50;8.90;;;5.00;;
5795;SDS011;2924;51.458;7.046;2023-03-01T17:41:16;7.20;;;5.00;;
5795;SDS011;2924;51.458;7.046;2023-03-01T17:43:46;6.67;;;4.03;;
5795;SDS011;2924;51.458;7.046;2023-03-01T17:46:12;12.50;;;5.30;;
5795;SDS011;2924;51.458;7.046;2023-03-01T17:48:38;8.67;;;4.80;;
5795;SDS011;2924;51.458;7.046;2023-03-01T17:51:04;9.40;;;5.07;;
5795;SDS011;2924;51.458;7.046;2023-03-01T17:53:32;10.03;;;6.57;;
5795;SDS011;2924;51.458;7.046;2023-03-01T17:55:59;9.13;;;6.00;;
5795;SDS011;2924;51.458;7.046;2023-03-01T17:58:25;12.93;;;5.33;;
5795;SDS011;2924;51.458;7.046;2023-03-01T18:00:51;9.77;;;5.10;;
5795;SDS011;2924;51.458;7.046;2023-03-01T18:03:17;18.63;;;4.67;;
5795;SDS011;2924;51.458;7.046;2023-03-01T18:05:42;13.10;;;4.83;;